Time;durP1;ratioP1;P1;durP2;ratioP2;P2;SDS_P1;SDS_P2;PMS_P1;PMS_P2;Temp;Humidity;BMP_temperature;BMP_pressure;BME280_temperature;BME280_humidity;BME280_pressure;Samples;Min_cycle;Max_cycle;Signal;HPM_P1;HPM_P2
2023/07/26 00:01:39;;;;;;;1.02;0.80;;;;;;;;;;5072229;28;20040;-83
2023/07/26 00:04:05;;;;;;;1.10;0.65;;;;;;;;;;5065890;28;20027;-85
2023/07/26 00:06:30;;;;;;;0.77;0.70;;;;;;;;;;5055017;28;20500;-85
2023/07/26 00:08:56;;;;;;;0.65;0.65;;;;;;;;;;5063383;28;20037;-84
2023/07/26 00:11:21;;;;;;;0.88;0.63;;;;;;;;;;5057862;28;20037;-84
2023/07/26 00:13:47;;;;;;;0.63;0.60;;;;;;;;;;5068551;28;20039;-84
2023/07/26 00:16:12;;;;;;;0.60;0.60;;;;;;;;;;5065863;28;20078;-84
2023/07/26 00:18:39;;;;;;;0.70;0.70;;;;;;;;;;5067847;28;20087;-84
2023/07/26 00:21:05;;;;;;;1.15;0.85;;;;;;;;;;5058629;28;20038;-84
2023/07/26 00:23:31;;;;;;;2.08;1.17;;;;;;;;;;5053586;28;20041;-84
2023/07/26 00:25:56;;;;;;;1.40;1.00;;;;;;;;;;5076196;28;20129;-86
2023/07/26 00:28:22;;;;;;;4.63;1.10;;;;;;;;;;5068799;28;20064;-84
2023/07/26 00:30:49;;;;;;;4.35;1.30;;;;;;;;;;5060553;28;20029;-83
2023/07/26 00:33:14;;;;;;;1.48;1.10;;;;;;;;;;5057563;28;20099;-83
2023/07/26 00:35:41;;;;;;;1.92;1.10;;;;;;;;;;5074195;28;20033;-84
2023/07/26 00:38:06;;;;;;;2.65;0.90;;;;;;;;;;5067202;28;20036;-84
2023/07/26 00:40:32;;;;;;;2.33;0.90;;;;;;;;;;5056698;28;20064;-83
2023/07/26 00:42:58;;;;;;;2.20;1.10;;;;;;;;;;5053131;28;20056;-84
2023/07/26 00:45:25;;;;;;;1.85;0.90;;;;;;;;;;5045774;28;20021;-84
2023/07/26 00:47:51;;;;;;;1.42;0.85;;;;;;;;;;5048899;28;20025;-84
2023/07/26 00:50:18;;;;;;;3.05;1.20;;;;;;;;;;5050658;28;20037;-84
2023/07/26 00:52:44;;;;;;;1.67;1.10;;;;;;;;;;5072156;28;20416;-84
2023/07/26 00:55:10;;;;;;;1.30;1.00;;;;;;;;;;5061013;28;20121;-83
2023/07/26 00:57:36;;;;;;;2.58;1.17;;;;;;;;;;5051383;28;20400;-86
2023/07/26 01:00:02;;;;;;;2.75;1.30;;;;;;;;;;5078398;28;20040;-83
2023/07/26 01:02:27;;;;;;;2.55;1.33;;;;;;;;;;5067903;28;20034;-86
2023/07/26 01:04:53;;;;;;;4.20;1.40;;;;;;;;;;5063696;28;20044;-84
2023/07/26 01:07:21;;;;;;;3.20;1.42;;;;;;;;;;5057994;28;20080;-84
2023/07/26 01:09:58;;;;;;;2.35;1.75;;;;;;;;;;5066828;28;20033;-83
2023/07/26 01:12:28;;;;;;;2.47;1.33;;;;;;;;;;5066496;28;20033;-83
2023/07/26 01:15:03;;;;;;;2.40;1.30;;;;;;;;;;5066061;28;20052;-83
2023/07/26 01:17:29;;;;;;;1.95;1.10;;;;;;;;;;5061741;28;20038;-84
2023/07/26 01:19:56;;;;;;;1.58;1.20;;;;;;;;;;5055258;28;20057;-83
2023/07/26 01:22:21;;;;;;;2.05;1.10;;;;;;;;;;5049727;28;20079;-84
2023/07/26 01:24:47;;;;;;;2.90;1.38;;;;;;;;;;5074538;28;20032;-84
2023/07/26 01:27:12;;;;;;;4.18;1.10;;;;;;;;;;5063705;28;20064;-83
2023/07/26 01:29:38;;;;;;;1.40;1.10;;;;;;;;;;5054513;28;20029;-87
2023/07/26 01:32:05;;;;;;;1.65;1.05;;;;;;;;;;5071287;28;20032;-84
2023/07/26 01:34:31;;;;;;;2.03;1.15;;;;;;;;;;5066585;28;20033;-82
2023/07/26 01:36:59;;;;;;;1.42;0.90;;;;;;;;;;5069228;28;20183;-84
2023/07/26 01:39:24;;;;;;;1.42;0.90;;;;;;;;;;5067422;28;20581;-86
2023/07/26 01:41:51;;;;;;;1.88;1.02;;;;;;;;;;5064590;28;20033;-86
2023/07/26 01:44:17;;;;;;;1.95;1.10;;;;;;;;;;5069741;28;20133;-84
2023/07/26 01:46:42;;;;;;;2.10;1.20;;;;;;;;;;5064883;28;20033;-84
2023/07/26 01:49:08;;;;;;;1.60;1.20;;;;;;;;;;5066237;28;20045;-84
2023/07/26 01:51:33;;;;;;;2.13;1.20;;;;;;;;;;5062243;28;20476;-86
2023/07/26 01:53:59;;;;;;;3.65;1.30;;;;;;;;;;5052980;28;20093;-85
2023/07/26 01:56:24;;;;;;;3.97;1.50;;;;;;;;;;5068907;28;20028;-83
2023/07/26 01:58:50;;;;;;;1.83;1.33;;;;;;;;;;5074734;28;20034;-83
2023/07/26 02:01:15;;;;;;;2.28;1.30;;;;;;;;;;5051175;28;20045;-83
2023/07/26 02:03:41;;;;;;;1.92;1.42;;;;;;;;;;5046094;28;20040;-86
2023/07/26 02:06:06;;;;;;;1.98;1.35;;;;;;;;;;5051468;28;20083;-84
2023/07/26 02:08:32;;;;;;;2.42;1.40;;;;;;;;;;5072484;28;20043;-84
2023/07/26 02:10:58;;;;;;;3.03;1.35;;;;;;;;;;5058632;28;20062;-83
2023/07/26 02:13:23;;;;;;;2.80;1.50;;;;;;;;;;5057524;28;20033;-86
2023/07/26 02:15:49;;;;;;;1.88;1.50;;;;;;;;;;5056994;28;20056;-84
2023/07/26 02:18:15;;;;;;;2.70;1.40;;;;;;;;;;5062037;28;20044;-83
2023/07/26 02:20:40;;;;;;;3.35;1.52;;;;;;;;;;5062860;28;20039;-83
2023/07/26 02:23:06;;;;;;;3.05;1.50;;;;;;;;;;5072012;28;20032;-85
2023/07/26 02:25:31;;;;;;;1.92;1.42;;;;;;;;;;5061070;28;20041;-85
2023/07/26 02:27:57;;;;;;;3.42;1.70;;;;;;;;;;5060278;28;20497;-85
2023/07/26 02:30:23;;;;;;;2.72;1.65;;;;;;;;;;5064839;28;20039;-83
2023/07/26 02:32:49;;;;;;;2.85;1.60;;;;;;;;;;5074441;28;20037;-83
2023/07/26 02:35:14;;;;;;;3.72;1.67;;;;;;;;;;5069131;28;20386;-84
2023/07/26 02:37:40;;;;;;;3.95;1.58;;;;;;;;;;5051576;28;20042;-86
2023/07/26 02:40:05;;;;;;;3.20;1.80;;;;;;;;;;5067225;28;20044;-83
2023/07/26 02:42:31;;;;;;;1.88;1.50;;;;;;;;;;5072064;28;20467;-83
2023/07/26 02:44:56;;;;;;;2.55;1.65;;;;;;;;;;5058911;28;20029;-83
2023/07/26 02:47:22;;;;;;;3.53;1.60;;;;;;;;;;5046861;28;20033;-85
2023/07/26 02:49:47;;;;;;;2.35;1.70;;;;;;;;;;5065853;28;20037;-83
2023/07/26 02:52:13;;;;;;;3.70;1.48;;;;;;;;;;5060155;28;20049;-84
2023/07/26 02:54:39;;;;;;;1.75;1.40;;;;;;;;;;5066242;28;20040;-85
2023/07/26 02:57:05;;;;;;;2.17;1.50;;;;;;;;;;5072642;28;20043;-86
2023/07/26 02:59:30;;;;;;;2.53;1.67;;;;;;;;;;5062038;28;20044;-86
2023/07/26 03:01:56;;;;;;;2.67;1.70;;;;;;;;;;5052530;28;20029;-83
2023/07/26 03:04:21;;;;;;;2.25;1.60;;;;;;;;;;5070394;28;20059;-84
2023/07/26 03:06:47;;;;;;;3.47;1.88;;;;;;;;;;5059475;28;20028;-83
2023/07/26 03:09:12;;;;;;;3.53;1.70;;;;;;;;;;5062394;28;20032;-83
2023/07/26 03:11:38;;;;;;;3.50;1.80;;;;;;;;;;5056739;28;20444;-84
2023/07/26 03:14:03;;;;;;;3.47;1.65;;;;;;;;;;5069881;28;20024;-84
2023/07/26 03:16:29;;;;;;;2.65;1.73;;;;;;;;;;5072645;28;20040;-86
2023/07/26 03:18:54;;;;;;;4.60;1.90;;;;;;;;;;5067623;28;20041;-83
2023/07/26 03:21:20;;;;;;;3.28;1.90;;;;;;;;;;5073510;28;20037;-81
2023/07/26 03:23:45;;;;;;;3.45;1.90;;;;;;;;;;5068012;28;20041;-86
2023/07/26 03:26:12;;;;;;;2.38;1.63;;;;;;;;;;5061576;28;20044;-85
2023/07/26 03:28:37;;;;;;;3.20;1.90;;;;;;;;;;5071824;28;20036;-84
2023/07/26 03:31:03;;;;;;;3.35;2.00;;;;;;;;;;5075837;28;20029;-83
2023/07/26 03:33:28;;;;;;;4.40;1.80;;;;;;;;;;5070476;28;20029;-84
2023/07/26 03:35:54;;;;;;;3.67;1.73;;;;;;;;;;5052666;28;20029;-84
2023/07/26 03:38:19;;;;;;;6.25;1.80;;;;;;;;;;5072390;28;20069;-85
2023/07/26 03:40:45;;;;;;;2.60;1.70;;;;;;;;;;5072039;28;20071;-83
2023/07/26 03:43:11;;;;;;;3.17;1.80;;;;;;;;;;5061733;28;20364;-84
2023/07/26 03:45:36;;;;;;;2.70;1.83;;;;;;;;;;5061180;28;20064;-83
2023/07/26 03:48:02;;;;;;;3.03;1.92;;;;;;;;;;5061994;28;20045;-84
2023/07/26 03:50:28;;;;;;;2.53;2.00;;;;;;;;;;5070746;28;20088;-86
2023/07/26 03:52:53;;;;;;;2.30;1.70;;;;;;;;;;5061099;28;20033;-83
2023/07/26 03:55:19;;;;;;;3.47;2.00;;;;;;;;;;5070633;28;20036;-84
2023/07/26 03:57:44;;;;;;;2.95;1.85;;;;;;;;;;5061262;28;20037;-85
2023/07/26 04:00:12;;;;;;;2.25;1.70;;;;;;;;;;5059131;28;20404;-83
2023/07/26 04:02:40;;;;;;;3.35;1.90;;;;;;;;;;5071718;28;20044;-84
2023/07/26 04:05:06;;;;;;;3.13;1.92;;;;;;;;;;5070832;28;20105;-83
2023/07/26 04:07:35;;;;;;;2.25;1.88;;;;;;;;;;5069860;28;20061;-82
2023/07/26 04:10:00;;;;;;;3.75;2.28;;;;;;;;;;5058484;28;20036;-85
2023/07/26 04:12:26;;;;;;;3.42;2.20;;;;;;;;;;5074345;28;20040;-83
2023/07/26 04:14:51;;;;;;;5.88;2.33;;;;;;;;;;5068729;28;20025;-83
2023/07/26 04:17:17;;;;;;;3.08;2.38;;;;;;;;;;5064352;28;20053;-83
2023/07/26 04:19:43;;;;;;;6.68;2.53;;;;;;;;;;5063752;28;20037;-85
2023/07/26 04:22:08;;;;;;;3.20;2.17;;;;;;;;;;5063895;28;20036;-83
2023/07/26 04:24:34;;;;;;;3.97;2.50;;;;;;;;;;5066946;28;20147;-83
2023/07/26 04:26:59;;;;;;;4.53;2.58;;;;;;;;;;5068664;28;20039;-83
2023/07/26 04:29:25;;;;;;;4.00;2.20;;;;;;;;;;5067827;28;20063;-85
2023/07/26 04:31:50;;;;;;;4.40;2.60;;;;;;;;;;5057951;28;20420;-82
2023/07/26 04:34:16;;;;;;;5.90;2.63;;;;;;;;;;5051900;28;20843;-82
2023/07/26 04:36:41;;;;;;;5.38;2.60;;;;;;;;;;5073279;28;20029;-83
2023/07/26 04:39:07;;;;;;;5.65;2.80;;;;;;;;;;5069983;28;20047;-84
2023/07/26 04:41:32;;;;;;;3.97;2.70;;;;;;;;;;5059581;28;20143;-83
2023/07/26 04:43:58;;;;;;;6.22;2.72;;;;;;;;;;5064863;28;20032;-86
2023/07/26 04:46:23;;;;;;;3.88;2.80;;;;;;;;;;5069592;28;20060;-84
2023/07/26 04:48:49;;;;;;;4.80;2.30;;;;;;;;;;5067567;28;20477;-82
2023/07/26 04:51:15;;;;;;;6.20;2.33;;;;;;;;;;5058936;28;20033;-83
2023/07/26 04:53:40;;;;;;;4.43;2.47;;;;;;;;;;5068884;28;20063;-83
2023/07/26 04:56:06;;;;;;;4.38;2.50;;;;;;;;;;5058981;28;20051;-84
2023/07/26 04:58:31;;;;;;;3.83;2.30;;;;;;;;;;5066120;28;20040;-82
2023/07/26 05:00:58;;;;;;;3.95;2.38;;;;;;;;;;5072969;28;20040;-84
2023/07/26 05:03:23;;;;;;;5.20;2.30;;;;;;;;;;5065654;28;20046;-82
2023/07/26 05:05:50;;;;;;;5.07;2.40;;;;;;;;;;5056665;28;20055;-81
2023/07/26 05:08:16;;;;;;;4.47;2.83;;;;;;;;;;5052396;28;20033;-83
2023/07/26 05:10:41;;;;;;;4.88;2.50;;;;;;;;;;5079034;28;20032;-84
2023/07/26 05:13:07;;;;;;;3.08;2.35;;;;;;;;;;5067645;28;20066;-85
2023/07/26 05:15:32;;;;;;;3.85;2.50;;;;;;;;;;5057856;28;20058;-86
2023/07/26 05:17:58;;;;;;;5.93;2.60;;;;;;;;;;5063396;28;20045;-83
2023/07/26 05:20:23;;;;;;;4.00;2.13;;;;;;;;;;5068683;28;20047;-83
2023/07/26 05:22:49;;;;;;;2.90;2.17;;;;;;;;;;5066335;28;20123;-86
2023/07/26 05:25:14;;;;;;;3.53;2.20;;;;;;;;;;5062080;28;20036;-84
2023/07/26 05:27:40;;;;;;;3.72;2.30;;;;;;;;;;5066788;28;20335;-84
2023/07/26 05:30:06;;;;;;;3.95;2.20;;;;;;;;;;5059275;28;20036;-83
2023/07/26 05:32:31;;;;;;;4.25;2.40;;;;;;;;;;5061085;28;20087;-83
2023/07/26 05:34:57;;;;;;;2.70;2.15;;;;;;;;;;5073209;28;20040;-85
2023/07/26 05:37:24;;;;;;;3.58;2.17;;;;;;;;;;5067045;28;20034;-86
2023/07/26 05:39:50;;;;;;;4.28;2.17;;;;;;;;;;5059589;28;20037;-85
2023/07/26 05:42:16;;;;;;;4.18;2.10;;;;;;;;;;5055261;28;20044;-81
2023/07/26 05:44:42;;;;;;;3.28;2.05;;;;;;;;;;5060906;28;20030;-83
2023/07/26 05:47:09;;;;;;;2.92;2.05;;;;;;;;;;5054016;28;20025;-83
2023/07/26 05:49:35;;;;;;;2.28;2.03;;;;;;;;;;5048383;28;20033;-84
2023/07/26 05:52:01;;;;;;;4.18;2.25;;;;;;;;;;5060684;28;20470;-84
2023/07/26 05:54:26;;;;;;;3.60;2.30;;;;;;;;;;5070838;28;20041;-83
2023/07/26 05:56:52;;;;;;;4.18;2.40;;;;;;;;;;5050385;28;20036;-86
2023/07/26 05:59:17;;;;;;;5.13;2.30;;;;;;;;;;5065334;28;20033;-87
2023/07/26 06:01:43;;;;;;;5.00;2.40;;;;;;;;;;5068850;28;20499;-82
2023/07/26 06:04:08;;;;;;;5.90;2.28;;;;;;;;;;5058314;28;20084;-84
2023/07/26 06:06:34;;;;;;;2.72;2.03;;;;;;;;;;5066458;28;20040;-82
2023/07/26 06:09:00;;;;;;;3.17;2.20;;;;;;;;;;5076978;28;20036;-85
2023/07/26 06:11:25;;;;;;;3.15;1.98;;;;;;;;;;5068784;28;20051;-85
2023/07/26 06:13:51;;;;;;;3.55;2.00;;;;;;;;;;5059042;28;20513;-84
2023/07/26 06:16:16;;;;;;;3.13;2.30;;;;;;;;;;5049858;28;20041;-84
2023/07/26 06:18:42;;;;;;;2.67;1.80;;;;;;;;;;5077156;28;20041;-82
2023/07/26 06:21:07;;;;;;;3.95;2.08;;;;;;;;;;5068984;28;20047;-82
2023/07/26 06:23:33;;;;;;;2.42;1.75;;;;;;;;;;5068667;28;20037;-83
2023/07/26 06:25:58;;;;;;;3.72;2.20;;;;;;;;;;5069010;28;20037;-83
2023/07/26 06:28:24;;;;;;;2.90;1.63;;;;;;;;;;5068938;28;20044;-84
2023/07/26 06:30:49;;;;;;;2.10;1.67;;;;;;;;;;5066392;28;20040;-84
2023/07/26 06:33:15;;;;;;;2.72;2.08;;;;;;;;;;5074784;28;20064;-83
2023/07/26 06:35:40;;;;;;;2.60;1.92;;;;;;;;;;5072181;28;20421;-83
2023/07/26 06:38:08;;;;;;;3.58;2.15;;;;;;;;;;5056369;28;20064;-82
2023/07/26 06:40:33;;;;;;;4.05;2.30;;;;;;;;;;5071155;28;20041;-82
2023/07/26 06:42:59;;;;;;;3.58;2.30;;;;;;;;;;5082285;28;20097;-84
2023/07/26 06:45:24;;;;;;;5.60;2.20;;;;;;;;;;5070626;28;20037;-86
2023/07/26 06:47:50;;;;;;;4.40;2.50;;;;;;;;;;5059042;28;20041;-82
2023/07/26 06:50:15;;;;;;;4.32;2.35;;;;;;;;;;5068666;28;20041;-83
2023/07/26 06:52:41;;;;;;;5.95;2.63;;;;;;;;;;5075438;28;20403;-83
2023/07/26 06:55:06;;;;;;;4.10;2.80;;;;;;;;;;5070996;28;20398;-85
2023/07/26 06:57:32;;;;;;;6.80;3.00;;;;;;;;;;5068615;28;20068;-84
2023/07/26 06:59:57;;;;;;;3.80;2.97;;;;;;;;;;5069462;28;20060;-83
2023/07/26 07:02:23;;;;;;;4.25;2.47;;;;;;;;;;5062556;28;20037;-86
2023/07/26 07:04:48;;;;;;;7.60;3.45;;;;;;;;;;5064466;28;20030;-83
2023/07/26 07:07:14;;;;;;;7.38;2.80;;;;;;;;;;5077017;28;20040;-87
2023/07/26 07:09:42;;;;;;;5.53;2.95;;;;;;;;;;5067943;28;20045;-84
2023/07/26 07:12:09;;;;;;;5.15;3.00;;;;;;;;;;5058576;28;20037;-85
2023/07/26 07:14:35;;;;;;;6.93;3.17;;;;;;;;;;5073746;28;20044;-83
2023/07/26 07:17:00;;;;;;;4.93;2.80;;;;;;;;;;5076330;28;20042;-82
2023/07/26 07:19:26;;;;;;;4.03;2.78;;;;;;;;;;5068563;28;20109;-82
2023/07/26 07:21:51;;;;;;;6.72;2.90;;;;;;;;;;5061133;28;20093;-82
2023/07/26 07:24:17;;;;;;;5.93;2.88;;;;;;;;;;5069353;28;20042;-82
2023/07/26 07:26:42;;;;;;;5.65;3.17;;;;;;;;;;5078319;28;20066;-81
2023/07/26 07:29:08;;;;;;;4.22;2.67;;;;;;;;;;5068462;28;20033;-81
2023/07/26 07:31:33;;;;;;;7.50;2.97;;;;;;;;;;5072882;28;20041;-81
2023/07/26 07:33:59;;;;;;;4.32;2.55;;;;;;;;;;5068160;28;20046;-81
2023/07/26 07:36:24;;;;;;;5.90;2.70;;;;;;;;;;5058929;28;20041;-80
2023/07/26 07:38:50;;;;;;;4.47;2.90;;;;;;;;;;5074577;28;20036;-81
2023/07/26 07:41:15;;;;;;;3.95;2.67;;;;;;;;;;5076844;28;20045;-81
2023/07/26 07:43:40;;;;;;;3.78;2.53;;;;;;;;;;5066641;28;20032;-81
2023/07/26 07:46:06;;;;;;;6.07;2.60;;;;;;;;;;5058376;28;20033;-81
2023/07/26 07:48:33;;;;;;;6.30;2.78;;;;;;;;;;5072527;28;20537;-82
2023/07/26 07:50:59;;;;;;;8.65;3.50;;;;;;;;;;5069373;28;20127;-82
2023/07/26 07:53:24;;;;;;;6.53;3.55;;;;;;;;;;5067321;28;20037;-81
2023/07/26 07:55:50;;;;;;;3.63;2.30;;;;;;;;;;5065273;28;20064;-81
2023/07/26 07:58:16;;;;;;;4.15;2.00;;;;;;;;;;5066183;28;20017;-83
2023/07/26 08:00:42;;;;;;;4.45;1.90;;;;;;;;;;5073357;28;20512;-82
2023/07/26 08:03:07;;;;;;;3.63;2.03;;;;;;;;;;5054607;28;20602;-81
2023/07/26 08:05:33;;;;;;;4.70;2.13;;;;;;;;;;5074233;28;20020;-81
2023/07/26 08:07:59;;;;;;;3.95;1.90;;;;;;;;;;5067809;28;20512;-82
2023/07/26 08:10:26;;;;;;;2.30;1.50;;;;;;;;;;5055596;28;20037;-82
2023/07/26 08:12:51;;;;;;;5.82;1.50;;;;;;;;;;5076213;28;20034;-81
2023/07/26 08:15:17;;;;;;;4.15;1.48;;;;;;;;;;5075626;28;20021;-81
2023/07/26 08:17:42;;;;;;;1.40;1.23;;;;;;;;;;5062030;28;20507;-82
2023/07/26 08:20:08;;;;;;;1.25;0.90;;;;;;;;;;5059430;28;20431;-83
2023/07/26 08:22:34;;;;;;;0.90;0.80;;;;;;;;;;5073560;28;20037;-80
2023/07/26 08:24:59;;;;;;;2.17;1.08;;;;;;;;;;5061497;28;20200;-82
2023/07/26 08:27:25;;;;;;;3.25;1.38;;;;;;;;;;5065453;28;20036;-82
2023/07/26 08:29:50;;;;;;;1.20;1.10;;;;;;;;;;5072046;28;20111;-81
2023/07/26 08:32:17;;;;;;;1.05;0.90;;;;;;;;;;5064560;28;20446;-83
2023/07/26 08:34:43;;;;;;;1.42;1.00;;;;;;;;;;5070344;28;20082;-82
2023/07/26 08:37:09;;;;;;;2.00;1.10;;;;;;;;;;5068258;28;21494;-81
2023/07/26 08:39:35;;;;;;;1.98;1.15;;;;;;;;;;5074719;28;20039;-81
2023/07/26 08:42:00;;;;;;;1.92;1.20;;;;;;;;;;5064828;28;20033;-83
2023/07/26 08:44:27;;;;;;;1.90;1.00;;;;;;;;;;5056560;28;20026;-81
2023/07/26 08:46:53;;;;;;;1.30;0.85;;;;;;;;;;5079833;28;20021;-81
2023/07/26 08:49:19;;;;;;;1.63;1.20;;;;;;;;;;5073546;28;20101;-82
2023/07/26 08:51:45;;;;;;;3.92;1.30;;;;;;;;;;5062573;28;20028;-83
2023/07/26 08:54:12;;;;;;;2.03;1.55;;;;;;;;;;5060307;28;20037;-82
2023/07/26 08:56:38;;;;;;;2.28;1.60;;;;;;;;;;5069299;28;20088;-82
2023/07/26 08:59:04;;;;;;;1.42;1.23;;;;;;;;;;5054218;28;20041;-81
2023/07/26 09:01:30;;;;;;;1.55;1.30;;;;;;;;;;5062114;28;20053;-81
2023/07/26 09:03:55;;;;;;;2.65;1.10;;;;;;;;;;5071935;28;20036;-80
2023/07/26 09:06:23;;;;;;;1.20;1.08;;;;;;;;;;5059693;28;20055;-82
2023/07/26 09:08:49;;;;;;;1.50;1.00;;;;;;;;;;5062326;28;20036;-82
2023/07/26 09:11:25;;;;;;;1.90;1.00;;;;;;;;;;5075132;28;20028;-82
2023/07/26 09:13:53;;;;;;;2.08;1.15;;;;;;;;;;5071265;28;20061;-82
2023/07/26 09:16:20;;;;;;;2.30;1.17;;;;;;;;;;5060826;28;20042;-79
2023/07/26 09:19:15;;;;;;;1.67;1.08;;;;;;;;;;5056474;28;20045;-81
2023/07/26 09:21:40;;;;;;;1.15;0.98;;;;;;;;;;5075198;28;20049;-84
2023/07/26 09:24:06;;;;;;;1.95;0.93;;;;;;;;;;5068404;28;20050;-82
2023/07/26 09:26:42;;;;;;;2.80;0.90;;;;;;;;;;5058253;28;20033;-81
2023/07/26 09:29:09;;;;;;;1.45;1.00;;;;;;;;;;5066616;28;20075;-81
2023/07/26 09:31:35;;;;;;;1.45;0.98;;;;;;;;;;5072865;28;20044;-80
2023/07/26 09:34:06;;;;;;;5.53;1.10;;;;;;;;;;5066875;28;20045;-82
2023/07/26 09:36:49;;;;;;;1.85;0.80;;;;;;;;;;5070777;28;20034;-80
2023/07/26 09:39:17;;;;;;;1.92;0.95;;;;;;;;;;5063616;28;20042;-83
2023/07/26 09:41:45;;;;;;;0.85;0.82;;;;;;;;;;5057563;28;20064;-81
2023/07/26 09:44:18;;;;;;;1.10;1.00;;;;;;;;;;5071048;28;20056;-81
2023/07/26 09:46:50;;;;;;;1.85;0.80;;;;;;;;;;5073169;28;20049;-82
2023/07/26 09:49:27;;;;;;;1.15;0.70;;;;;;;;;;5058933;28;20033;-81
2023/07/26 09:51:57;;;;;;;0.77;0.70;;;;;;;;;;5054270;28;20439;-82
2023/07/26 09:54:26;;;;;;;1.33;0.90;;;;;;;;;;5077858;28;20025;-82
2023/07/26 09:56:54;;;;;;;0.70;0.70;;;;;;;;;;5070264;28;20043;-82
2023/07/26 09:59:20;;;;;;;0.70;0.70;;;;;;;;;;5049701;28;20045;-82
2023/07/26 10:01:47;;;;;;;0.95;0.80;;;;;;;;;;5066535;28;20047;-81
2023/07/26 10:04:21;;;;;;;1.35;0.73;;;;;;;;;;5061432;28;20104;-82
2023/07/26 10:06:51;;;;;;;1.00;0.90;;;;;;;;;;5061761;28;20040;-81
2023/07/26 10:09:16;;;;;;;1.20;0.80;;;;;;;;;;5070508;28;20053;-82
2023/07/26 10:11:43;;;;;;;0.70;0.70;;;;;;;;;;5068563;28;20036;-81
2023/07/26 10:14:14;;;;;;;1.10;0.80;;;;;;;;;;5057713;28;20051;-82
2023/07/26 10:16:39;;;;;;;1.17;0.80;;;;;;;;;;5054971;28;20404;-81
2023/07/26 10:19:06;;;;;;;1.20;0.70;;;;;;;;;;5077580;28;20040;-82
2023/07/26 10:21:34;;;;;;;0.88;0.77;;;;;;;;;;5069837;28;20547;-81
2023/07/26 10:24:02;;;;;;;0.98;0.80;;;;;;;;;;5067573;28;20041;-82
2023/07/26 10:26:34;;;;;;;1.10;0.75;;;;;;;;;;5061340;28;20033;-81
2023/07/26 10:29:00;;;;;;;0.82;0.70;;;;;;;;;;5072326;28;20036;-83
2023/07/26 10:31:26;;;;;;;1.58;0.80;;;;;;;;;;5072615;28;20036;-81
2023/07/26 10:33:57;;;;;;;1.02;0.90;;;;;;;;;;5060364;28;20036;-81
2023/07/26 10:36:32;;;;;;;0.80;0.80;;;;;;;;;;5078877;28;20056;-81
2023/07/26 10:39:05;;;;;;;1.08;0.80;;;;;;;;;;5062786;28;20500;-81
2023/07/26 10:41:31;;;;;;;2.55;0.80;;;;;;;;;;5064350;28;20050;-81
2023/07/26 10:44:04;;;;;;;1.10;0.90;;;;;;;;;;5075169;28;20033;-81
2023/07/26 10:46:35;;;;;;;1.42;0.80;;;;;;;;;;5062005;28;20029;-81
2023/07/26 10:49:16;;;;;;;0.68;0.60;;;;;;;;;;5057029;28;20041;-82
2023/07/26 10:51:52;;;;;;;1.05;0.63;;;;;;;;;;5075557;28;20041;-82
2023/07/26 10:54:36;;;;;;;1.05;0.70;;;;;;;;;;5070936;28;20061;-81
2023/07/26 10:57:14;;;;;;;1.00;0.70;;;;;;;;;;5062058;28;20028;-82
2023/07/26 10:59:59;;;;;;;1.20;0.60;;;;;;;;;;5059403;28;20033;-82
2023/07/26 11:02:47;;;;;;;0.75;0.75;;;;;;;;;;5067212;28;20041;-82
2023/07/26 11:05:20;;;;;;;0.70;0.70;;;;;;;;;;5068605;28;20029;-82
2023/07/26 11:07:53;;;;;;;2.45;0.82;;;;;;;;;;5067653;28;20047;-82
2023/07/26 11:10:24;;;;;;;0.80;0.80;;;;;;;;;;5055904;28;20041;-82
2023/07/26 11:13:04;;;;;;;0.77;0.75;;;;;;;;;;5062076;28;20086;-82
2023/07/26 11:15:30;;;;;;;1.05;0.60;;;;;;;;;;5063563;28;20037;-84
2023/07/26 11:17:56;;;;;;;1.25;0.77;;;;;;;;;;5069922;28;20014;-84
2023/07/26 11:20:21;;;;;;;1.73;0.85;;;;;;;;;;5056333;28;20064;-87
2023/07/26 11:22:47;;;;;;;1.40;0.70;;;;;;;;;;5051296;28;20017;-82
2023/07/26 11:25:12;;;;;;;3.30;0.73;;;;;;;;;;5058240;28;20029;-82
2023/07/26 11:27:38;;;;;;;2.17;0.80;;;;;;;;;;5072905;28;20423;-82
2023/07/26 11:30:04;;;;;;;1.45;0.90;;;;;;;;;;5065508;28;20380;-82
2023/07/26 11:32:29;;;;;;;1.80;0.80;;;;;;;;;;5046501;28;20032;-82
2023/07/26 11:34:56;;;;;;;3.95;0.70;;;;;;;;;;5049813;28;20297;-83
2023/07/26 11:37:22;;;;;;;1.92;0.80;;;;;;;;;;5067576;28;20031;-83
2023/07/26 11:39:47;;;;;;;0.70;0.70;;;;;;;;;;5065973;28;20021;-83
2023/07/26 11:42:16;;;;;;;0.88;0.80;;;;;;;;;;5056647;28;20028;-82
2023/07/26 11:44:42;;;;;;;2.75;0.70;;;;;;;;;;5050323;28;20044;-83
2023/07/26 11:47:07;;;;;;;2.03;0.80;;;;;;;;;;5057122;28;20025;-84
2023/07/26 11:49:34;;;;;;;3.58;1.00;;;;;;;;;;5068191;28;20059;-83
2023/07/26 11:51:59;;;;;;;1.55;0.80;;;;;;;;;;5063335;28;20037;-82
2023/07/26 11:54:25;;;;;;;1.55;0.90;;;;;;;;;;5056000;28;20104;-83
2023/07/26 11:56:50;;;;;;;1.38;0.80;;;;;;;;;;5065628;28;20553;-82
2023/07/26 11:59:16;;;;;;;1.17;0.73;;;;;;;;;;5059401;28;20061;-82
2023/07/26 12:01:42;;;;;;;1.48;0.90;;;;;;;;;;5070124;28;20033;-83
2023/07/26 12:04:09;;;;;;;2.58;0.90;;;;;;;;;;5058639;28;20041;-81
2023/07/26 12:06:35;;;;;;;2.22;0.90;;;;;;;;;;5067067;28;20751;-82
2023/07/26 12:09:11;;;;;;;1.42;0.80;;;;;;;;;;5059448;28;20036;-82
2023/07/26 12:11:37;;;;;;;1.08;0.70;;;;;;;;;;5050702;28;20037;-82
2023/07/26 12:14:02;;;;;;;5.47;1.00;;;;;;;;;;5061189;28;20025;-81
2023/07/26 12:16:29;;;;;;;2.38;0.90;;;;;;;;;;5070987;28;20573;-83
2023/07/26 12:18:58;;;;;;;1.35;0.80;;;;;;;;;;5065599;28;20037;-81
2023/07/26 12:21:26;;;;;;;1.52;0.80;;;;;;;;;;5052470;28;20044;-81
2023/07/26 12:23:53;;;;;;;1.30;0.77;;;;;;;;;;5051887;28;20037;-81
2023/07/26 12:26:23;;;;;;;1.63;0.80;;;;;;;;;;5073806;28;20818;-80
2023/07/26 12:28:51;;;;;;;0.95;0.80;;;;;;;;;;5064893;28;20399;-82
2023/07/26 12:31:27;;;;;;;1.00;0.90;;;;;;;;;;5058858;28;20045;-81
2023/07/26 12:34:02;;;;;;;1.67;0.80;;;;;;;;;;5047250;28;20093;-81
2023/07/26 12:36:31;;;;;;;1.60;0.95;;;;;;;;;;5071661;28;20028;-82
2023/07/26 12:38:59;;;;;;;2.22;0.90;;;;;;;;;;5064790;28;20021;-81
2023/07/26 12:41:25;;;;;;;0.80;0.80;;;;;;;;;;5054797;28;20144;-80
2023/07/26 12:43:52;;;;;;;1.88;0.95;;;;;;;;;;5048757;28;20072;-81
2023/07/26 12:46:18;;;;;;;2.10;0.80;;;;;;;;;;5046567;28;20053;-81
2023/07/26 12:48:44;;;;;;;0.82;0.80;;;;;;;;;;5071052;28;20059;-81
2023/07/26 12:51:09;;;;;;;1.70;1.10;;;;;;;;;;5063891;28;20071;-81
2023/07/26 12:53:35;;;;;;;1.10;0.82;;;;;;;;;;5052967;28;20045;-81
2023/07/26 12:56:00;;;;;;;2.15;0.93;;;;;;;;;;5061665;28;20036;-82
2023/07/26 12:58:26;;;;;;;2.08;1.10;;;;;;;;;;5061669;28;20063;-82
2023/07/26 13:00:51;;;;;;;2.55;1.00;;;;;;;;;;5065298;28;20041;-84
2023/07/26 13:03:17;;;;;;;2.50;1.08;;;;;;;;;;5054546;28;20125;-83
2023/07/26 13:05:43;;;;;;;1.30;0.90;;;;;;;;;;5064885;28;20033;-83
2023/07/26 13:08:09;;;;;;;1.98;1.00;;;;;;;;;;5061580;28;20032;-83
2023/07/26 13:10:35;;;;;;;2.20;1.00;;;;;;;;;;5054982;28;20039;-82
2023/07/26 13:13:01;;;;;;;2.08;1.20;;;;;;;;;;5059283;28;20040;-82
2023/07/26 13:15:27;;;;;;;1.33;1.20;;;;;;;;;;5063817;28;20028;-86
2023/07/26 13:17:53;;;;;;;1.70;1.38;;;;;;;;;;5058637;28;20578;-88
2023/07/26 13:20:19;;;;;;;3.10;1.50;;;;;;;;;;5053600;28;20125;-87
2023/07/26 13:22:44;;;;;;;4.53;1.20;;;;;;;;;;5053715;28;20391;-88
2023/07/26 13:25:10;;;;;;;1.92;1.27;;;;;;;;;;5070936;28;20467;-85
2023/07/26 13:27:36;;;;;;;2.30;1.20;;;;;;;;;;5065459;28;20039;-86
2023/07/26 13:30:03;;;;;;;2.10;1.10;;;;;;;;;;5063205;28;20124;-86
2023/07/26 13:32:29;;;;;;;1.60;1.08;;;;;;;;;;5051359;28;20116;-86
2023/07/26 13:34:55;;;;;;;3.35;1.20;;;;;;;;;;5070344;28;20090;-86
2023/07/26 13:37:21;;;;;;;2.42;1.30;;;;;;;;;;5071823;28;20057;-87
2023/07/26 13:39:46;;;;;;;1.85;1.05;;;;;;;;;;5058204;28;20024;-87
2023/07/26 13:42:12;;;;;;;2.55;1.10;;;;;;;;;;5055193;28;20036;-87
2023/07/26 13:44:37;;;;;;;2.13;1.20;;;;;;;;;;5056924;28;20042;-86
2023/07/26 13:47:03;;;;;;;1.63;1.10;;;;;;;;;;5065856;28;20028;-90
2023/07/26 13:49:28;;;;;;;2.05;1.30;;;;;;;;;;5037619;28;20220;-89
2023/07/26 13:51:54;;;;;;;2.22;1.20;;;;;;;;;;5059615;28;20032;-90
2023/07/26 13:54:19;;;;;;;1.92;1.20;;;;;;;;;;5053241;28;20483;-89
2023/07/26 13:56:45;;;;;;;2.35;1.30;;;;;;;;;;5043580;28;20034;-90
2023/07/26 13:59:10;;;;;;;2.25;1.35;;;;;;;;;;5058399;28;20107;-90
2023/07/26 14:01:36;;;;;;;2.65;1.60;;;;;;;;;;5052488;28;20032;-90
2023/07/26 14:04:02;;;;;;;2.78;1.45;;;;;;;;;;5052646;28;20069;-90
2023/07/26 14:06:29;;;;;;;3.08;1.30;;;;;;;;;;5037325;28;20028;-90
2023/07/26 14:08:55;;;;;;;2.22;1.08;;;;;;;;;;5034613;28;20060;-90
2023/07/26 14:11:21;;;;;;;2.80;1.17;;;;;;;;;;5053189;28;20078;-90
2023/07/26 14:13:47;;;;;;;1.48;1.10;;;;;;;;;;5057548;28;20037;-90
2023/07/26 14:16:13;;;;;;;2.20;1.10;;;;;;;;;;5053313;28;20036;-89
2023/07/26 14:18:40;;;;;;;3.38;1.20;;;;;;;;;;5046722;28;20095;-89
2023/07/26 14:21:05;;;;;;;2.78;1.20;;;;;;;;;;5057625;28;20028;-90
2023/07/26 14:23:32;;;;;;;1.65;1.10;;;;;;;;;;5061192;28;20070;-83
2023/07/26 14:26:01;;;;;;;2.30;1.02;;;;;;;;;;5058962;28;20033;-84
2023/07/26 14:28:27;;;;;;;2.25;1.23;;;;;;;;;;5046833;28;20063;-84
2023/07/26 14:30:53;;;;;;;2.35;1.20;;;;;;;;;;5038356;28;20135;-86
2023/07/26 14:33:19;;;;;;;1.77;1.10;;;;;;;;;;5054624;28;20119;-86
2023/07/26 14:35:46;;;;;;;1.70;1.10;;;;;;;;;;5058802;28;20497;-86
2023/07/26 14:38:11;;;;;;;2.83;1.45;;;;;;;;;;5053620;28;20040;-84
2023/07/26 14:40:37;;;;;;;3.08;1.10;;;;;;;;;;5042947;28;20038;-85